createdAt,value
2019-04-21T00:02:32.382Z,99.90
2019-04-21T00:05:22.864Z,99.90
2019-04-21T00:07:43.693Z,99.90
2019-04-21T00:10:18.793Z,99.90
2019-04-21T00:12:50.550Z,99.90
2019-04-21T00:15:09.659Z,99.90
2019-04-21T00:17:32.086Z,99.90
2019-04-21T00:20:12.676Z,99.90
2019-04-21T00:22:46.648Z,99.90
2019-04-21T00:25:19.105Z,99.90
2019-04-21T00:27:52.007Z,99.90
2019-04-21T00:30:26.950Z,99.90
2019-04-21T00:32:50.302Z,99.90
2019-04-21T00:35:13.252Z,99.90
2019-04-21T00:38:15.384Z,99.90
2019-04-21T00:40:29.055Z,99.90
2019-04-21T00:42:55.848Z,99.90
2019-04-21T00:45:23.369Z,99.90
2019-04-21T00:48:05.740Z,99.90
2019-04-21T00:50:40.565Z,99.90
2019-04-21T00:53:32.133Z,99.90
2019-04-21T00:56:01.586Z,99.90
2019-04-21T00:58:30.037Z,99.90
2019-04-21T01:01:00.478Z,99.90
2019-04-21T01:03:26.134Z,99.90
2019-04-21T01:05:58.952Z,99.90
2019-04-21T01:08:28.258Z,99.90
2019-04-21T01:10:48.876Z,99.90
2019-04-21T01:13:27.823Z,99.90
2019-04-21T01:16:00.772Z,99.90
2019-04-21T01:18:27.416Z,99.90
2019-04-21T01:20:36.014Z,99.90
2019-04-21T01:23:04.664Z,99.90
2019-04-21T01:25:41.141Z,99.90
2019-04-21T01:28:18.911Z,99.90
2019-04-21T01:30:53.452Z,99.90
2019-04-21T01:33:26.278Z,99.90
2019-04-21T01:35:53.926Z,99.90
2019-04-21T01:38:32.783Z,99.90
2019-04-21T01:41:02.459Z,99.90
2019-04-21T01:43:24.947Z,99.90
2019-04-21T01:45:53.871Z,99.90
2019-04-21T01:48:21.824Z,99.90
2019-04-21T01:50:56.752Z,99.90
2019-04-21T01:53:42.402Z,99.90
2019-04-21T01:56:18.394Z,99.90
2019-04-21T01:58:39.899Z,99.90
2019-04-21T02:01:21.184Z,99.90
2019-04-21T02:06:22.886Z,99.90
2019-04-21T02:08:48.789Z,99.90
2019-04-21T02:11:26.419Z,99.90
2019-04-21T02:14:00.492Z,99.90
2019-04-21T02:16:23.418Z,99.90
2019-04-21T02:18:53.004Z,99.90
2019-04-21T02:21:20.388Z,99.90
2019-04-21T02:23:59.861Z,99.90
2019-04-21T02:26:29.964Z,99.90
2019-04-21T02:29:02.041Z,99.90
2019-04-21T02:31:41.843Z,99.90
2019-04-21T02:34:13.110Z,99.90
2019-04-21T02:39:19.241Z,99.90
2019-04-21T02:41:41.744Z,99.90
2019-04-21T02:44:10.519Z,99.90
2019-04-21T02:49:17.164Z,99.90
2019-04-21T02:51:50.868Z,99.90
2019-04-21T02:59:30.482Z,99.90
2019-04-21T03:01:49.058Z,99.90
2019-04-21T03:07:09.739Z,99.90
2019-04-21T03:09:35.691Z,99.90
2019-04-21T03:12:11.143Z,99.90
2019-04-21T03:17:09.605Z,99.90
2019-04-21T03:19:55.543Z,99.90
2019-04-21T03:24:53.915Z,99.90
2019-04-21T03:27:28.840Z,99.90
2019-04-21T03:29:34.979Z,99.90
2019-04-21T03:32:31.052Z,99.90
2019-04-21T03:37:11.257Z,99.90
2019-04-21T03:40:01.403Z,99.90
2019-04-21T03:47:32.496Z,99.90
2019-04-21T03:52:38.847Z,99.90
2019-04-21T04:00:42.487Z,99.90
2019-04-21T04:11:19.614Z,99.90
2019-04-21T04:13:47.797Z,99.90
2019-04-21T04:16:10.219Z,99.90
2019-04-21T04:18:48.688Z,99.90
2019-04-21T04:21:20.799Z,99.90
2019-04-21T04:23:47.263Z,99.90
2019-04-21T04:28:47.946Z,99.90
2019-04-21T04:31:18.030Z,99.90
2019-04-21T04:33:48.327Z,99.90
2019-04-21T04:42:04.929Z,99.90
2019-04-21T04:44:26.417Z,99.90
2019-04-21T04:46:55.801Z,99.90
2019-04-21T04:52:19.269Z,99.90
2019-04-21T04:54:31.700Z,99.90
2019-04-21T04:56:56.306Z,99.90
2019-04-21T04:59:33.662Z,99.90
2019-04-21T05:02:06.318Z,99.90
2019-04-21T05:04:23.707Z,99.90
2019-04-21T05:07:11.938Z,99.90
2019-04-21T05:09:21.395Z,99.90
2019-04-21T05:11:50.141Z,99.90
2019-04-21T05:14:26.551Z,99.90
2019-04-21T05:16:59.504Z,99.90
2019-04-21T05:19:28.258Z,99.90
2019-04-21T05:21:48.055Z,99.90
2019-04-21T05:24:13.722Z,99.90
2019-04-21T05:26:46.263Z,99.90
2019-04-21T05:29:09.007Z,99.90
2019-04-21T05:31:50.939Z,99.90
2019-04-21T05:34:27.586Z,99.90
2019-04-21T05:37:01.381Z,99.90
2019-04-21T05:39:29.645Z,99.90
2019-04-21T05:41:55.235Z,99.90
2019-04-21T05:44:41.904Z,99.90
2019-04-21T05:47:15.853Z,99.90
2019-04-21T05:49:45.468Z,99.90
2019-04-21T05:52:09.475Z,99.90
2019-04-21T05:54:52.764Z,99.90
2019-04-21T05:57:14.583Z,99.90
2019-04-21T05:59:49.002Z,99.90
2019-04-21T06:02:22.322Z,99.90
2019-04-21T06:07:23.023Z,99.90
2019-04-21T06:09:57.096Z,99.90
2019-04-21T06:12:21.185Z,99.90
2019-04-21T06:14:55.990Z,99.90
2019-04-21T06:17:31.539Z,99.90
2019-04-21T06:19:57.303Z,99.90
2019-04-21T06:22:23.495Z,99.90
2019-04-21T06:25:21.115Z,99.90
2019-04-21T06:27:42.411Z,99.90
2019-04-21T06:32:46.010Z,99.90
2019-04-21T06:35:17.430Z,99.90
2019-04-21T06:37:43.202Z,99.90
2019-04-21T06:42:35.367Z,99.90
2019-04-21T06:45:08.795Z,99.90
2019-04-21T06:50:01.670Z,99.90
2019-04-21T06:52:47.689Z,99.90
2019-04-21T06:57:34.995Z,99.90
2019-04-21T06:59:59.974Z,99.90
2019-04-21T07:03:29.121Z,99.90
2019-04-21T07:05:21.107Z,99.90
2019-04-21T07:07:35.199Z,99.90
2019-04-21T07:10:22.786Z,99.90
2019-04-21T07:12:33.864Z,99.90
2019-04-21T07:15:03.548Z,99.90
2019-04-21T07:17:35.469Z,99.90
2019-04-21T07:20:12.182Z,99.90
2019-04-21T07:22:36.846Z,99.90
2019-04-21T07:25:10.551Z,99.90
2019-04-21T07:27:42.802Z,99.90
2019-04-21T07:30:27.976Z,99.90
2019-04-21T07:32:40.220Z,99.90
2019-04-21T07:35:09.763Z,99.90
2019-04-21T07:37:54.116Z,99.90
2019-04-21T07:40:05.527Z,99.90
2019-04-21T07:42:32.835Z,99.90
2019-04-21T07:45:05.289Z,99.90
2019-04-21T07:47:44.818Z,99.90
2019-04-21T07:50:14.822Z,99.90
2019-04-21T07:52:53.396Z,99.90
2019-04-21T07:57:45.104Z,99.90
2019-04-21T08:02:54.009Z,99.90
2019-04-21T08:12:50.667Z,99.90
2019-04-21T08:15:52.986Z,99.90
2019-04-21T08:17:53.373Z,99.90
2019-04-21T08:20:24.078Z,99.90
2019-04-21T08:23:02.551Z,99.90
2019-04-21T08:25:27.423Z,99.90
2019-04-21T08:28:01.540Z,99.90
2019-04-21T08:30:30.493Z,99.90
2019-04-21T08:36:04.788Z,99.90
2019-04-21T08:38:00.869Z,99.90
2019-04-21T08:40:36.666Z,99.90
2019-04-21T08:43:02.507Z,99.90
2019-04-21T08:45:38.094Z,99.90
2019-04-21T08:48:04.187Z,99.90
2019-04-21T08:50:30.931Z,99.90
2019-04-21T08:53:03.930Z,99.90
2019-04-21T08:56:05.741Z,99.90
2019-04-21T08:58:54.651Z,99.90
2019-04-21T09:01:39.848Z,99.90
2019-04-21T09:04:07.539Z,99.90
2019-04-21T09:06:54.136Z,99.90
2019-04-21T09:09:10.976Z,99.90
2019-04-21T09:11:37.554Z,99.90
2019-04-21T09:14:07.753Z,99.90
2019-04-21T09:16:35.514Z,99.90
2019-04-21T09:19:04.720Z,99.90
2019-04-21T09:21:43.736Z,99.90
2019-04-21T09:24:11.597Z,99.90
2019-04-21T09:26:34.931Z,99.90
2019-04-21T09:29:04.243Z,99.90
2019-04-21T09:31:26.001Z,99.70
2019-04-21T09:33:56.999Z,99.90
2019-04-21T09:36:25.512Z,99.90
2019-04-21T09:39:00.051Z,99.70
2019-04-21T09:41:25.879Z,99.50
2019-04-21T09:43:56.170Z,99.20
2019-04-21T09:46:25.474Z,97.40
2019-04-21T09:49:00.667Z,97.60
2019-04-21T09:51:24.319Z,97.10
2019-04-21T09:54:00.876Z,98.20
2019-04-21T09:56:31.506Z,95.40
2019-04-21T09:59:03.818Z,94.90
2019-04-21T10:01:32.202Z,96.30
2019-04-21T10:03:58.642Z,95.20
2019-04-21T10:06:25.962Z,94.10
2019-04-21T10:08:58.368Z,94.00
2019-04-21T10:11:24.845Z,93.30
2019-04-21T10:13:53.454Z,93.10
2019-04-21T10:16:26.746Z,92.10
2019-04-21T10:18:55.269Z,92.50
2019-04-21T10:21:27.594Z,93.30
2019-04-21T10:23:55.238Z,92.50
2019-04-21T10:26:24.383Z,92.00
2019-04-21T10:28:53.062Z,92.20
2019-04-21T10:31:22.787Z,92.00
2019-04-21T10:33:52.525Z,92.30
2019-04-21T10:36:21.202Z,90.90
2019-04-21T10:38:53.084Z,91.70
2019-04-21T10:41:21.377Z,90.70
2019-04-21T10:43:51.269Z,90.30
2019-04-21T10:46:20.066Z,89.30
2019-04-21T10:48:48.680Z,90.30
2019-04-21T10:51:17.234Z,89.90
2019-04-21T10:53:50.839Z,90.20
2019-04-21T10:56:25.202Z,90.40
2019-04-21T10:58:48.074Z,90.10
2019-04-21T11:01:18.974Z,89.30
2019-04-21T11:03:49.240Z,88.50
2019-04-21T11:06:19.137Z,89.00
2019-04-21T11:08:51.022Z,88.50
2019-04-21T11:11:17.895Z,88.20
2019-04-21T11:13:46.563Z,90.00
2019-04-21T11:16:15.272Z,87.20
2019-04-21T11:18:44.167Z,89.00
2019-04-21T11:21:13.289Z,88.40
2019-04-21T11:23:41.886Z,87.20
2019-04-21T11:26:11.873Z,86.30
2019-04-21T11:28:40.862Z,86.30
2019-04-21T11:31:11.075Z,85.80
2019-04-21T11:33:39.886Z,86.20
2019-04-21T11:36:09.063Z,85.10
2019-04-21T11:38:57.135Z,83.20
2019-04-21T11:41:09.877Z,85.00
2019-04-21T11:43:39.157Z,83.70
2019-04-21T11:46:08.601Z,82.50
2019-04-21T11:48:37.301Z,81.30
2019-04-21T11:51:06.848Z,79.90
2019-04-21T11:53:37.100Z,81.30
2019-04-21T11:56:06.914Z,81.10
2019-04-21T11:58:36.066Z,83.00
2019-04-21T12:01:05.793Z,81.30
2019-04-21T12:03:37.749Z,81.20
2019-04-21T12:06:06.715Z,81.80
2019-04-21T12:08:41.315Z,82.30
2019-04-21T12:11:05.486Z,81.30
2019-04-21T12:13:36.107Z,78.80
2019-04-21T12:16:05.515Z,76.90
2019-04-21T12:18:34.140Z,77.20
2019-04-21T12:21:03.271Z,78.50
2019-04-21T12:23:32.417Z,78.90
2019-04-21T12:26:01.429Z,80.00
2019-04-21T12:28:30.368Z,80.30
2019-04-21T12:31:00.102Z,80.60
2019-04-21T12:33:32.072Z,79.70
2019-04-21T12:36:01.919Z,78.50
2019-04-21T12:38:40.739Z,80.00
2019-04-21T12:41:02.333Z,80.20
2019-04-21T12:43:31.037Z,82.10
2019-04-21T12:46:00.120Z,81.60
2019-04-21T12:48:29.646Z,80.80
2019-04-21T12:50:59.696Z,80.10
2019-04-21T12:53:29.731Z,82.10
2019-04-21T12:56:00.157Z,81.40
2019-04-21T12:58:29.099Z,81.30
2019-04-21T13:00:58.931Z,80.90
2019-04-21T13:03:28.722Z,83.20
2019-04-21T13:05:59.326Z,82.40
2019-04-21T13:08:29.198Z,81.30
2019-04-21T13:10:58.205Z,82.50
2019-04-21T13:13:28.110Z,79.20
2019-04-21T13:15:57.755Z,81.00
2019-04-21T13:18:27.040Z,81.10
2019-04-21T13:20:56.055Z,81.70
2019-04-21T13:23:25.044Z,81.80
2019-04-21T13:25:54.127Z,83.00
2019-04-21T13:28:23.099Z,82.20
2019-04-21T13:30:51.909Z,81.70
2019-04-21T13:33:20.971Z,82.30
2019-04-21T13:35:50.930Z,82.40
2019-04-21T13:38:29.344Z,82.60
2019-04-21T13:41:14.175Z,83.90
2019-04-21T13:43:32.962Z,82.20
2019-04-21T13:46:01.886Z,82.80
2019-04-21T13:48:30.726Z,84.60
2019-04-21T13:50:59.643Z,82.70
2019-04-21T13:53:28.533Z,81.90
2019-04-21T13:55:58.518Z,82.30
2019-04-21T13:58:28.191Z,82.50
2019-04-21T14:00:57.960Z,82.60
2019-04-21T14:03:26.874Z,82.90
2019-04-21T14:05:56.208Z,83.80
2019-04-21T14:08:25.350Z,82.50
2019-04-21T14:10:55.566Z,83.60
2019-04-21T14:13:24.717Z,82.70
2019-04-21T14:15:53.878Z,80.50
2019-04-21T14:18:22.797Z,81.10
2019-04-21T14:20:51.782Z,81.10
2019-04-21T14:23:29.937Z,81.90
2019-04-21T14:25:50.917Z,81.30
2019-04-21T14:28:19.923Z,81.90
2019-04-21T14:30:50.346Z,81.00
2019-04-21T14:33:20.460Z,80.50
2019-04-21T14:35:50.588Z,80.50
2019-04-21T14:38:20.618Z,78.70
2019-04-21T14:40:50.320Z,80.20
2019-04-21T14:43:20.417Z,79.40
2019-04-21T14:45:52.617Z,79.10
2019-04-21T14:48:41.093Z,77.80
2019-04-21T14:51:19.073Z,78.80
2019-04-21T14:53:52.142Z,76.10
2019-04-21T14:56:27.113Z,75.70
2019-04-21T14:58:58.725Z,75.00
2019-04-21T15:01:26.322Z,72.70
2019-04-21T15:03:55.475Z,73.70
2019-04-21T15:06:25.332Z,71.70
2019-04-21T15:08:55.430Z,72.40
2019-04-21T15:11:24.322Z,70.10
2019-04-21T15:13:53.626Z,69.70
2019-04-21T15:16:22.871Z,70.50
2019-04-21T15:18:52.663Z,71.50
2019-04-21T15:21:21.709Z,71.80
2019-04-21T15:23:50.763Z,67.80
2019-04-21T15:26:20.055Z,68.40
2019-04-21T15:28:48.933Z,68.70
2019-04-21T15:31:24.145Z,67.80
2019-04-21T15:33:47.897Z,65.40
2019-04-21T15:36:16.730Z,65.90
2019-04-21T15:38:45.764Z,64.90
2019-04-21T15:41:14.561Z,64.60
2019-04-21T15:43:43.097Z,67.40
2019-04-21T15:46:12.897Z,63.30
2019-04-21T15:48:41.724Z,65.00
2019-04-21T15:51:11.101Z,65.20
2019-04-21T15:53:41.823Z,65.20
2019-04-21T15:56:28.789Z,64.90
2019-04-21T15:58:59.073Z,66.80
2019-04-21T16:01:36.460Z,66.20
2019-04-21T16:04:06.561Z,67.20
2019-04-21T16:06:35.670Z,67.70
2019-04-21T16:09:08.406Z,67.60
2019-04-21T16:11:39.946Z,68.20
2019-04-21T16:14:10.019Z,69.40
2019-04-21T16:16:39.226Z,70.30
2019-04-21T16:19:08.172Z,70.50
2019-04-21T16:21:41.011Z,70.90
2019-04-21T16:24:08.786Z,70.00
2019-04-21T16:26:38.445Z,70.40
2019-04-21T16:29:07.204Z,70.70
2019-04-21T16:31:36.417Z,71.30
2019-04-21T16:34:05.420Z,71.00
2019-04-21T16:36:33.952Z,70.50
2019-04-21T16:39:02.560Z,71.40
2019-04-21T16:41:32.112Z,71.20
2019-04-21T16:44:00.966Z,72.00
2019-04-21T16:46:29.581Z,72.00
2019-04-21T16:48:58.118Z,72.10
2019-04-21T16:51:26.787Z,72.30
2019-04-21T16:53:59.854Z,72.00
2019-04-21T16:56:31.125Z,72.40
2019-04-21T16:59:20.936Z,72.60
2019-04-21T17:01:49.574Z,71.80
2019-04-21T17:04:18.205Z,71.50
2019-04-21T17:06:47.205Z,72.10
2019-04-21T17:09:16.788Z,72.60
2019-04-21T17:11:46.969Z,72.70
2019-04-21T17:14:34.614Z,71.90
2019-04-21T17:17:09.909Z,70.80
2019-04-21T17:19:26.949Z,70.70
2019-04-21T17:21:47.893Z,70.60
2019-04-21T17:24:16.805Z,70.80
2019-04-21T17:26:46.439Z,71.70
2019-04-21T17:29:16.819Z,71.50
2019-04-21T17:31:45.756Z,70.90
2019-04-21T17:34:19.558Z,71.10
2019-04-21T17:36:45.374Z,71.00
2019-04-21T17:39:14.250Z,70.90
2019-04-21T17:42:04.096Z,70.80
2019-04-21T17:44:13.261Z,71.00
2019-04-21T17:46:48.541Z,71.20
2019-04-21T17:49:12.819Z,71.10
2019-04-21T17:51:49.368Z,71.50
2019-04-21T17:54:24.769Z,72.10
2019-04-21T17:57:10.720Z,72.70
2019-04-21T17:59:44.856Z,73.20
2019-04-21T18:02:03.714Z,73.40
2019-04-21T18:04:37.527Z,74.20
2019-04-21T18:07:04.855Z,75.40
2019-04-21T18:09:51.803Z,76.40
2019-04-21T18:12:12.378Z,77.20
2019-04-21T18:14:24.364Z,77.70
2019-04-21T18:16:53.551Z,78.30
2019-04-21T18:19:26.800Z,78.90
2019-04-21T18:22:06.598Z,79.40
2019-04-21T18:24:45.940Z,79.80
2019-04-21T18:27:07.784Z,80.60
2019-04-21T18:29:36.649Z,81.60
2019-04-21T18:32:06.347Z,82.60
2019-04-21T18:34:42.787Z,82.90
2019-04-21T18:37:18.212Z,84.10
2019-04-21T18:39:57.512Z,84.40
2019-04-21T18:42:45.420Z,84.70
2019-04-21T18:45:47.905Z,84.50
2019-04-21T18:48:05.040Z,86.00
2019-04-21T18:50:50.707Z,85.50
2019-04-21T18:53:41.412Z,86.00
2019-04-21T18:56:01.352Z,86.60
2019-04-21T18:58:24.740Z,87.20
2019-04-21T19:01:04.612Z,86.90
2019-04-21T19:03:28.169Z,87.60
2019-04-21T19:06:01.855Z,87.80
2019-04-21T19:08:46.551Z,87.90
2019-04-21T19:11:13.521Z,88.10
2019-04-21T19:13:59.929Z,88.10
2019-04-21T19:18:56.571Z,89.10
2019-04-21T19:21:15.920Z,89.40
2019-04-21T19:23:51.972Z,90.00
2019-04-21T19:28:54.813Z,90.40
2019-04-21T19:31:24.815Z,90.50
2019-04-21T19:33:48.101Z,90.60
2019-04-21T19:36:05.808Z,90.90
2019-04-21T19:38:45.714Z,91.20
2019-04-21T19:41:24.624Z,91.20
2019-04-21T19:43:52.438Z,91.60
2019-04-21T19:46:22.708Z,91.80
2019-04-21T19:49:03.879Z,91.80
2019-04-21T19:51:24.412Z,91.80
2019-04-21T19:53:50.368Z,92.30
2019-04-21T19:56:12.075Z,92.60
2019-04-21T19:58:44.328Z,92.60
2019-04-21T20:01:11.856Z,92.60
2019-04-21T20:03:43.132Z,92.90
2019-04-21T20:06:28.594Z,93.00
2019-04-21T20:09:00.980Z,93.20
2019-04-21T20:11:31.101Z,93.20
2019-04-21T20:14:32.632Z,93.40
2019-04-21T20:16:40.429Z,93.80
2019-04-21T20:18:54.489Z,93.40
2019-04-21T20:21:16.363Z,93.30
2019-04-21T20:23:46.608Z,93.30
2019-04-21T20:26:17.032Z,93.50
2019-04-21T20:28:57.138Z,93.30
2019-04-21T20:31:30.081Z,93.10
2019-04-21T20:34:07.883Z,93.40
2019-04-21T20:36:33.154Z,93.70
2019-04-21T20:38:53.533Z,93.90
2019-04-21T20:41:26.942Z,93.90
2019-04-21T20:44:07.284Z,93.90
2019-04-21T20:46:37.222Z,94.20
2019-04-21T20:48:59.998Z,94.30
2019-04-21T20:51:36.225Z,94.60
2019-04-21T20:54:03.191Z,94.70
2019-04-21T20:56:34.498Z,94.60
2019-04-21T20:59:08.077Z,94.50
2019-04-21T21:01:35.871Z,94.40
2019-04-21T21:04:02.395Z,94.40
2019-04-21T21:06:33.174Z,94.50
2019-04-21T21:09:07.348Z,94.60
2019-04-21T21:11:43.353Z,94.70
2019-04-21T21:14:28.097Z,94.80
2019-04-21T21:17:01.233Z,94.70
2019-04-21T21:19:32.945Z,95.00
2019-04-21T21:21:54.252Z,95.00
2019-04-21T21:24:37.131Z,95.20
2019-04-21T21:26:58.156Z,95.30
2019-04-21T21:29:29.172Z,95.50
2019-04-21T21:32:11.252Z,95.60
2019-04-21T21:34:34.556Z,96.50
2019-04-21T21:37:01.752Z,95.90
2019-04-21T21:39:31.375Z,96.00
2019-04-21T21:41:49.760Z,96.10
2019-04-21T21:44:19.704Z,95.90
2019-04-21T21:46:59.431Z,96.50
2019-04-21T21:49:28.180Z,96.00
2019-04-21T21:51:56.835Z,96.00
2019-04-21T21:54:15.871Z,96.10
2019-04-21T21:56:44.721Z,95.90
2019-04-21T21:59:20.101Z,95.70
2019-04-21T22:01:49.115Z,95.90
2019-04-21T22:04:20.799Z,95.80
2019-04-21T22:06:53.780Z,95.80
2019-04-21T22:09:16.613Z,95.90
2019-04-21T22:11:48.592Z,96.00
2019-04-21T22:14:24.392Z,96.00
2019-04-21T22:16:57.792Z,96.10
2019-04-21T22:19:34.846Z,96.30
2019-04-21T22:22:05.165Z,96.70
2019-04-21T22:24:34.877Z,97.10
2019-04-21T22:26:47.281Z,97.30
2019-04-21T22:29:16.115Z,97.40
2019-04-21T22:31:45.125Z,97.40
2019-04-21T22:34:16.706Z,97.70
2019-04-21T22:36:56.292Z,98.10
2019-04-21T22:39:35.010Z,98.40
2019-04-21T22:41:48.862Z,98.60
2019-04-21T22:44:20.732Z,98.90
2019-04-21T22:46:58.653Z,99.10
2019-04-21T22:49:21.463Z,99.60
2019-04-21T22:51:51.961Z,99.90
2019-04-21T22:54:26.801Z,99.90
2019-04-21T22:56:57.135Z,99.90
2019-04-21T22:59:22.909Z,99.90
2019-04-21T23:01:52.611Z,99.90
2019-04-21T23:04:25.421Z,99.90
2019-04-21T23:06:58.303Z,99.90
2019-04-21T23:09:22.544Z,99.90
2019-04-21T23:11:55.811Z,99.90
2019-04-21T23:14:21.597Z,99.90
2019-04-21T23:16:54.071Z,99.90
2019-04-21T23:19:37.427Z,99.90
2019-04-21T23:22:09.509Z,99.90
2019-04-21T23:24:48.082Z,99.90
2019-04-21T23:27:04.819Z,99.90
2019-04-21T23:29:48.237Z,99.90
2019-04-21T23:32:08.490Z,99.90
2019-04-21T23:34:28.375Z,99.90
2019-04-21T23:37:00.246Z,99.90
2019-04-21T23:39:27.368Z,99.90
2019-04-21T23:41:53.894Z,99.90
2019-04-21T23:44:23.996Z,99.90
2019-04-21T23:46:57.579Z,99.90
2019-04-21T23:49:38.038Z,99.90
2019-04-21T23:52:00.478Z,99.90
2019-04-21T23:54:23.317Z,99.90
2019-04-21T23:56:51.849Z,99.90
2019-04-21T23:59:20.648Z,99.90
